sensor_id;sensor_type;location;lat;lon;timestamp;temperature;humidity
13332;DHT22;6735;51.456;12.626;2023-06-04T00:01:09;11.20;52.60
13332;DHT22;6735;51.456;12.626;2023-06-04T00:03:35;11.20;52.60
13332;DHT22;6735;51.456;12.626;2023-06-04T00:06:00;11.20;52.50
13332;DHT22;6735;51.456;12.626;2023-06-04T00:08:26;11.20;52.60
13332;DHT22;6735;51.456;12.626;2023-06-04T00:10:51;11.20;52.40
13332;DHT22;6735;51.456;12.626;2023-06-04T00:13:17;11.10;52.60
13332;DHT22;6735;51.456;12.626;2023-06-04T00:15:42;11.10;52.90
13332;DHT22;6735;51.456;12.626;2023-06-04T00:18:08;11.10;53.30
13332;DHT22;6735;51.456;12.626;2023-06-04T00:20:36;11.10;53.50
13332;DHT22;6735;51.456;12.626;2023-06-04T00:23:01;11.10;54.00
13332;DHT22;6735;51.456;12.626;2023-06-04T00:25:27;11.00;54.20
13332;DHT22;6735;51.456;12.626;2023-06-04T00:27:52;11.00;54.50
13332;DHT22;6735;51.456;12.626;2023-06-04T00:30:18;10.90;54.90
13332;DHT22;6735;51.456;12.626;2023-06-04T00:32:43;10.90;55.80
13332;DHT22;6735;51.456;12.626;2023-06-04T00:35:09;10.80;56.00
13332;DHT22;6735;51.456;12.626;2023-06-04T00:37:35;10.80;56.20
13332;DHT22;6735;51.456;12.626;2023-06-04T00:40:00;10.70;56.30
13332;DHT22;6735;51.456;12.626;2023-06-04T00:42:26;10.70;56.50
13332;DHT22;6735;51.456;12.626;2023-06-04T00:44:51;10.60;56.70
13332;DHT22;6735;51.456;12.626;2023-06-04T00:47:18;10.60;56.80
13332;DHT22;6735;51.456;12.626;2023-06-04T00:49:45;10.60;56.80
13332;DHT22;6735;51.456;12.626;2023-06-04T00:52:13;10.50;57.20
13332;DHT22;6735;51.456;12.626;2023-06-04T00:54:39;10.40;57.30
13332;DHT22;6735;51.456;12.626;2023-06-04T00:57:05;10.40;57.80
13332;DHT22;6735;51.456;12.626;2023-06-04T00:59:33;10.30;58.00
13332;DHT22;6735;51.456;12.626;2023-06-04T01:02:02;10.30;58.00
13332;DHT22;6735;51.456;12.626;2023-06-04T01:04:36;10.20;58.00
13332;DHT22;6735;51.456;12.626;2023-06-04T01:07:04;10.20;58.00
13332;DHT22;6735;51.456;12.626;2023-06-04T01:09:30;10.20;58.50
13332;DHT22;6735;51.456;12.626;2023-06-04T01:11:56;10.20;58.30
13332;DHT22;6735;51.456;12.626;2023-06-04T01:14:23;10.10;58.50
13332;DHT22;6735;51.456;12.626;2023-06-04T01:16:56;10.10;58.70
13332;DHT22;6735;51.456;12.626;2023-06-04T01:22:44;10.00;59.30
13332;DHT22;6735;51.456;12.626;2023-06-04T01:25:41;9.90;59.00
13332;DHT22;6735;51.456;12.626;2023-06-04T01:28:15;9.90;59.40
13332;DHT22;6735;51.456;12.626;2023-06-04T01:30:44;9.80;59.60
13332;DHT22;6735;51.456;12.626;2023-06-04T01:33:18;9.80;59.40
13332;DHT22;6735;51.456;12.626;2023-06-04T01:35:44;9.80;59.50
13332;DHT22;6735;51.456;12.626;2023-06-04T01:38:10;9.80;59.80
13332;DHT22;6735;51.456;12.626;2023-06-04T01:40:36;9.70;60.00
13332;DHT22;6735;51.456;12.626;2023-06-04T01:43:02;9.70;60.00
13332;DHT22;6735;51.456;12.626;2023-06-04T01:45:28;9.70;59.90
13332;DHT22;6735;51.456;12.626;2023-06-04T01:47:55;9.70;59.90
13332;DHT22;6735;51.456;12.626;2023-06-04T01:50:21;9.60;60.10
13332;DHT22;6735;51.456;12.626;2023-06-04T01:52:47;9.50;60.00
13332;DHT22;6735;51.456;12.626;2023-06-04T01:55:14;9.50;60.20
13332;DHT22;6735;51.456;12.626;2023-06-04T01:57:41;9.40;60.10
13332;DHT22;6735;51.456;12.626;2023-06-04T02:00:08;9.40;60.20
13332;DHT22;6735;51.456;12.626;2023-06-04T02:02:36;9.40;60.40
13332;DHT22;6735;51.456;12.626;2023-06-04T02:05:04;9.30;60.50
13332;DHT22;6735;51.456;12.626;2023-06-04T02:07:38;9.30;60.50
13332;DHT22;6735;51.456;12.626;2023-06-04T02:10:08;9.30;60.30
13332;DHT22;6735;51.456;12.626;2023-06-04T02:12:36;9.20;60.40
13332;DHT22;6735;51.456;12.626;2023-06-04T02:15:02;9.20;60.50
13332;DHT22;6735;51.456;12.626;2023-06-04T02:17:28;9.20;60.50
13332;DHT22;6735;51.456;12.626;2023-06-04T02:19:58;9.20;60.70
13332;DHT22;6735;51.456;12.626;2023-06-04T02:22:24;9.10;60.70
13332;DHT22;6735;51.456;12.626;2023-06-04T02:24:50;9.20;60.90
13332;DHT22;6735;51.456;12.626;2023-06-04T02:27:16;9.10;61.20
13332;DHT22;6735;51.456;12.626;2023-06-04T02:29:41;9.10;61.30
13332;DHT22;6735;51.456;12.626;2023-06-04T02:32:08;9.10;61.50
13332;DHT22;6735;51.456;12.626;2023-06-04T02:34:33;9.10;61.60
13332;DHT22;6735;51.456;12.626;2023-06-04T02:37:03;9.00;61.70
13332;DHT22;6735;51.456;12.626;2023-06-04T02:39:29;9.00;61.70
13332;DHT22;6735;51.456;12.626;2023-06-04T02:41:54;9.00;61.90
13332;DHT22;6735;51.456;12.626;2023-06-04T02:44:20;8.90;62.00
13332;DHT22;6735;51.456;12.626;2023-06-04T02:46:46;8.90;62.40
13332;DHT22;6735;51.456;12.626;2023-06-04T02:49:11;8.90;62.50
13332;DHT22;6735;51.456;12.626;2023-06-04T02:51:42;8.90;62.70
13332;DHT22;6735;51.456;12.626;2023-06-04T02:54:07;8.80;62.90
13332;DHT22;6735;51.456;12.626;2023-06-04T02:56:33;8.80;63.00
13332;DHT22;6735;51.456;12.626;2023-06-04T02:59:00;8.80;63.20
13332;DHT22;6735;51.456;12.626;2023-06-04T03:01:26;8.80;63.30
13332;DHT22;6735;51.456;12.626;2023-06-04T03:03:53;8.70;63.30
13332;DHT22;6735;51.456;12.626;2023-06-04T03:06:20;8.70;63.60
13332;DHT22;6735;51.456;12.626;2023-06-04T03:08:50;8.70;63.50
13332;DHT22;6735;51.456;12.626;2023-06-04T03:11:19;8.70;63.80
13332;DHT22;6735;51.456;12.626;2023-06-04T03:13:46;8.70;64.00
13332;DHT22;6735;51.456;12.626;2023-06-04T03:16:12;8.70;64.20
13332;DHT22;6735;51.456;12.626;2023-06-04T03:18:41;8.70;64.40
13332;DHT22;6735;51.456;12.626;2023-06-04T03:21:07;8.60;64.50
13332;DHT22;6735;51.456;12.626;2023-06-04T03:23:34;8.60;64.50
13332;DHT22;6735;51.456;12.626;2023-06-04T03:26:04;8.70;64.70
13332;DHT22;6735;51.456;12.626;2023-06-04T03:28:30;8.70;64.30
13332;DHT22;6735;51.456;12.626;2023-06-04T03:30:57;8.70;64.40
13332;DHT22;6735;51.456;12.626;2023-06-04T03:33:23;8.70;64.50
13332;DHT22;6735;51.456;12.626;2023-06-04T03:35:50;8.70;64.70
13332;DHT22;6735;51.456;12.626;2023-06-04T03:38:15;8.70;64.80
13332;DHT22;6735;51.456;12.626;2023-06-04T03:40:42;8.70;64.80
13332;DHT22;6735;51.456;12.626;2023-06-04T03:43:07;8.70;65.10
13332;DHT22;6735;51.456;12.626;2023-06-04T03:45:33;8.80;65.00
13332;DHT22;6735;51.456;12.626;2023-06-04T03:47:58;8.90;65.00
13332;DHT22;6735;51.456;12.626;2023-06-04T03:50:24;8.90;65.00
13332;DHT22;6735;51.456;12.626;2023-06-04T03:52:49;8.90;65.00
13332;DHT22;6735;51.456;12.626;2023-06-04T03:55:15;8.90;65.10
13332;DHT22;6735;51.456;12.626;2023-06-04T03:57:40;9.00;65.20
13332;DHT22;6735;51.456;12.626;2023-06-04T04:00:09;9.10;65.20
13332;DHT22;6735;51.456;12.626;2023-06-04T04:02:40;9.10;65.00
13332;DHT22;6735;51.456;12.626;2023-06-04T04:05:06;9.10;65.20
13332;DHT22;6735;51.456;12.626;2023-06-04T04:07:32;9.20;65.30
13332;DHT22;6735;51.456;12.626;2023-06-04T04:09:57;9.30;65.30
13332;DHT22;6735;51.456;12.626;2023-06-04T04:12:23;9.40;65.40
13332;DHT22;6735;51.456;12.626;2023-06-04T04:14:48;9.50;65.40
13332;DHT22;6735;51.456;12.626;2023-06-04T04:17:14;9.50;64.80
13332;DHT22;6735;51.456;12.626;2023-06-04T04:19:40;9.70;64.60
13332;DHT22;6735;51.456;12.626;2023-06-04T04:22:06;9.80;64.40
13332;DHT22;6735;51.456;12.626;2023-06-04T04:24:32;10.00;64.10
13332;DHT22;6735;51.456;12.626;2023-06-04T04:27:00;10.10;63.80
13332;DHT22;6735;51.456;12.626;2023-06-04T04:29:25;10.10;63.60
13332;DHT22;6735;51.456;12.626;2023-06-04T04:31:53;10.20;63.40
13332;DHT22;6735;51.456;12.626;2023-06-04T04:34:21;10.30;63.20
13332;DHT22;6735;51.456;12.626;2023-06-04T04:36:48;10.40;63.10
13332;DHT22;6735;51.456;12.626;2023-06-04T04:39:22;10.50;62.90
13332;DHT22;6735;51.456;12.626;2023-06-04T04:41:47;10.60;62.70
13332;DHT22;6735;51.456;12.626;2023-06-04T04:44:13;10.70;62.30
13332;DHT22;6735;51.456;12.626;2023-06-04T04:46:38;10.80;62.20
13332;DHT22;6735;51.456;12.626;2023-06-04T04:49:04;11.00;62.10
13332;DHT22;6735;51.456;12.626;2023-06-04T04:51:29;11.20;61.70
13332;DHT22;6735;51.456;12.626;2023-06-04T04:53:55;12.40;59.60
13332;DHT22;6735;51.456;12.626;2023-06-04T04:56:21;14.60;54.30
13332;DHT22;6735;51.456;12.626;2023-06-04T04:58:48;16.40;51.10
13332;DHT22;6735;51.456;12.626;2023-06-04T05:01:13;17.90;48.10
13332;DHT22;6735;51.456;12.626;2023-06-04T05:03:39;19.10;45.80
13332;DHT22;6735;51.456;12.626;2023-06-04T05:06:04;20.00;44.20
13332;DHT22;6735;51.456;12.626;2023-06-04T05:08:30;20.60;42.80
13332;DHT22;6735;51.456;12.626;2023-06-04T05:10:55;21.50;41.50
13332;DHT22;6735;51.456;12.626;2023-06-04T05:13:21;22.10;39.70
13332;DHT22;6735;51.456;12.626;2023-06-04T05:15:47;22.20;39.70
13332;DHT22;6735;51.456;12.626;2023-06-04T05:18:13;22.60;38.60
13332;DHT22;6735;51.456;12.626;2023-06-04T05:20:41;23.30;37.60
13332;DHT22;6735;51.456;12.626;2023-06-04T05:23:06;23.70;36.80
13332;DHT22;6735;51.456;12.626;2023-06-04T05:25:32;24.20;35.60
13332;DHT22;6735;51.456;12.626;2023-06-04T05:27:57;24.40;35.20
13332;DHT22;6735;51.456;12.626;2023-06-04T05:30:23;24.70;34.70
13332;DHT22;6735;51.456;12.626;2023-06-04T05:32:48;25.10;33.80
13332;DHT22;6735;51.456;12.626;2023-06-04T05:35:16;25.50;32.80
13332;DHT22;6735;51.456;12.626;2023-06-04T05:37:42;25.60;32.60
13332;DHT22;6735;51.456;12.626;2023-06-04T05:40:11;25.80;31.90
13332;DHT22;6735;51.456;12.626;2023-06-04T05:42:38;26.20;30.80
13332;DHT22;6735;51.456;12.626;2023-06-04T05:45:04;26.10;31.00
13332;DHT22;6735;51.456;12.626;2023-06-04T05:47:30;26.20;30.70
13332;DHT22;6735;51.456;12.626;2023-06-04T05:49:56;26.50;30.00
13332;DHT22;6735;51.456;12.626;2023-06-04T05:52:22;26.60;29.40
13332;DHT22;6735;51.456;12.626;2023-06-04T05:54:48;26.30;29.70
13332;DHT22;6735;51.456;12.626;2023-06-04T05:57:14;26.60;29.00
13332;DHT22;6735;51.456;12.626;2023-06-04T05:59:40;26.70;28.80
13332;DHT22;6735;51.456;12.626;2023-06-04T06:02:05;26.60;28.40
13332;DHT22;6735;51.456;12.626;2023-06-04T06:04:31;26.60;28.10
13332;DHT22;6735;51.456;12.626;2023-06-04T06:06:56;26.80;27.50
13332;DHT22;6735;51.456;12.626;2023-06-04T06:09:22;26.90;26.90
13332;DHT22;6735;51.456;12.626;2023-06-04T06:11:48;26.20;27.10
13332;DHT22;6735;51.456;12.626;2023-06-04T06:14:14;26.00;27.30
13332;DHT22;6735;51.456;12.626;2023-06-04T06:16:40;26.50;26.60
13332;DHT22;6735;51.456;12.626;2023-06-04T06:19:05;26.30;26.60
13332;DHT22;6735;51.456;12.626;2023-06-04T06:21:31;26.50;26.20
13332;DHT22;6735;51.456;12.626;2023-06-04T06:23:57;25.90;27.10
13332;DHT22;6735;51.456;12.626;2023-06-04T06:26:22;25.80;27.00
13332;DHT22;6735;51.456;12.626;2023-06-04T06:28:49;26.20;25.90
13332;DHT22;6735;51.456;12.626;2023-06-04T06:31:15;26.40;26.20
13332;DHT22;6735;51.456;12.626;2023-06-04T06:33:40;26.50;26.20
13332;DHT22;6735;51.456;12.626;2023-06-04T06:36:07;26.00;26.70
13332;DHT22;6735;51.456;12.626;2023-06-04T06:38:33;26.20;26.40
13332;DHT22;6735;51.456;12.626;2023-06-04T06:40:58;26.50;26.00
13332;DHT22;6735;51.456;12.626;2023-06-04T06:43:24;26.60;25.40
13332;DHT22;6735;51.456;12.626;2023-06-04T06:45:50;26.50;25.90
13332;DHT22;6735;51.456;12.626;2023-06-04T06:48:16;26.40;25.00
13332;DHT22;6735;51.456;12.626;2023-06-04T06:50:42;26.30;25.90
13332;DHT22;6735;51.456;12.626;2023-06-04T06:53:07;26.60;25.60
13332;DHT22;6735;51.456;12.626;2023-06-04T06:55:33;26.40;25.70
13332;DHT22;6735;51.456;12.626;2023-06-04T06:57:58;26.10;25.90
13332;DHT22;6735;51.456;12.626;2023-06-04T07:00:26;26.10;25.70
13332;DHT22;6735;51.456;12.626;2023-06-04T07:02:51;26.10;25.70
13332;DHT22;6735;51.456;12.626;2023-06-04T07:05:17;25.50;26.20
13332;DHT22;6735;51.456;12.626;2023-06-04T07:07:42;25.60;26.30
13332;DHT22;6735;51.456;12.626;2023-06-04T07:10:09;25.90;26.20
13332;DHT22;6735;51.456;12.626;2023-06-04T07:12:34;26.00;25.70
13332;DHT22;6735;51.456;12.626;2023-06-04T07:15:00;25.70;26.10
13332;DHT22;6735;51.456;12.626;2023-06-04T07:17:26;25.50;26.20
13332;DHT22;6735;51.456;12.626;2023-06-04T07:19:51;25.30;26.30
13332;DHT22;6735;51.456;12.626;2023-06-04T07:22:17;24.80;26.80
13332;DHT22;6735;51.456;12.626;2023-06-04T07:24:42;24.90;26.60
13332;DHT22;6735;51.456;12.626;2023-06-04T07:27:12;25.00;26.40
13332;DHT22;6735;51.456;12.626;2023-06-04T07:29:38;24.90;26.60
13332;DHT22;6735;51.456;12.626;2023-06-04T07:32:04;25.00;26.60
13332;DHT22;6735;51.456;12.626;2023-06-04T07:34:29;24.60;27.00
13332;DHT22;6735;51.456;12.626;2023-06-04T07:36:55;24.90;26.70
13332;DHT22;6735;51.456;12.626;2023-06-04T07:39:21;25.20;26.40
13332;DHT22;6735;51.456;12.626;2023-06-04T07:41:47;25.10;26.40
13332;DHT22;6735;51.456;12.626;2023-06-04T07:44:12;25.20;26.30
13332;DHT22;6735;51.456;12.626;2023-06-04T07:46:37;24.90;26.40
13332;DHT22;6735;51.456;12.626;2023-06-04T07:49:03;24.50;26.50
13332;DHT22;6735;51.456;12.626;2023-06-04T07:51:28;24.70;26.30
13332;DHT22;6735;51.456;12.626;2023-06-04T07:53:54;25.10;25.50
13332;DHT22;6735;51.456;12.626;2023-06-04T07:56:19;24.70;25.50
13332;DHT22;6735;51.456;12.626;2023-06-04T07:58:45;25.10;25.40
13332;DHT22;6735;51.456;12.626;2023-06-04T08:01:11;25.10;25.10
13332;DHT22;6735;51.456;12.626;2023-06-04T08:03:36;25.00;25.20
13332;DHT22;6735;51.456;12.626;2023-06-04T08:06:02;25.30;24.80
13332;DHT22;6735;51.456;12.626;2023-06-04T08:08:27;25.30;24.70
13332;DHT22;6735;51.456;12.626;2023-06-04T08:10:53;25.20;24.80
13332;DHT22;6735;51.456;12.626;2023-06-04T08:13:18;25.30;24.30
13332;DHT22;6735;51.456;12.626;2023-06-04T08:15:44;25.10;23.90
13332;DHT22;6735;51.456;12.626;2023-06-04T08:18:09;24.90;24.00
13332;DHT22;6735;51.456;12.626;2023-06-04T08:20:35;24.70;23.80
13332;DHT22;6735;51.456;12.626;2023-06-04T08:23:01;25.00;23.60
13332;DHT22;6735;51.456;12.626;2023-06-04T08:25:27;24.90;23.40
13332;DHT22;6735;51.456;12.626;2023-06-04T08:27:52;24.80;23.40
13332;DHT22;6735;51.456;12.626;2023-06-04T08:30:18;25.00;23.20
13332;DHT22;6735;51.456;12.626;2023-06-04T08:32:43;25.10;22.70
13332;DHT22;6735;51.456;12.626;2023-06-04T08:35:09;24.70;22.90
13332;DHT22;6735;51.456;12.626;2023-06-04T08:37:35;24.60;23.20
13332;DHT22;6735;51.456;12.626;2023-06-04T08:40:01;24.90;22.70
13332;DHT22;6735;51.456;12.626;2023-06-04T08:42:29;25.20;22.30
13332;DHT22;6735;51.456;12.626;2023-06-04T08:44:59;25.30;22.20
13332;DHT22;6735;51.456;12.626;2023-06-04T08:47:25;25.40;21.80
13332;DHT22;6735;51.456;12.626;2023-06-04T08:49:52;25.10;22.30
13332;DHT22;6735;51.456;12.626;2023-06-04T08:52:18;25.40;22.00
13332;DHT22;6735;51.456;12.626;2023-06-04T08:54:49;25.50;22.00
13332;DHT22;6735;51.456;12.626;2023-06-04T08:57:17;25.30;22.00
13332;DHT22;6735;51.456;12.626;2023-06-04T08:59:43;25.40;22.00
13332;DHT22;6735;51.456;12.626;2023-06-04T09:02:10;25.20;22.40
13332;DHT22;6735;51.456;12.626;2023-06-04T09:04:36;25.40;21.90
13332;DHT22;6735;51.456;12.626;2023-06-04T09:07:03;25.10;22.30
13332;DHT22;6735;51.456;12.626;2023-06-04T09:09:29;25.10;22.50
13332;DHT22;6735;51.456;12.626;2023-06-04T09:11:57;25.20;22.40
13332;DHT22;6735;51.456;12.626;2023-06-04T09:14:22;25.70;21.90
13332;DHT22;6735;51.456;12.626;2023-06-04T09:16:50;25.90;21.90
13332;DHT22;6735;51.456;12.626;2023-06-04T09:19:17;25.80;21.60
13332;DHT22;6735;51.456;12.626;2023-06-04T09:22:09;26.20;21.50
13332;DHT22;6735;51.456;12.626;2023-06-04T09:24:43;26.50;20.70
13332;DHT22;6735;51.456;12.626;2023-06-04T09:27:13;26.30;21.60
13332;DHT22;6735;51.456;12.626;2023-06-04T09:29:39;26.10;21.40
13332;DHT22;6735;51.456;12.626;2023-06-04T09:32:05;26.20;21.00
13332;DHT22;6735;51.456;12.626;2023-06-04T09:34:31;25.90;21.20
13332;DHT22;6735;51.456;12.626;2023-06-04T09:36:57;25.50;21.30
13332;DHT22;6735;51.456;12.626;2023-06-04T09:39:23;25.60;21.60
13332;DHT22;6735;51.456;12.626;2023-06-04T09:42:02;25.50;21.30
13332;DHT22;6735;51.456;12.626;2023-06-04T09:44:29;25.70;19.90
13332;DHT22;6735;51.456;12.626;2023-06-04T09:46:56;26.00;20.80
13332;DHT22;6735;51.456;12.626;2023-06-04T09:49:21;26.20;20.60
13332;DHT22;6735;51.456;12.626;2023-06-04T09:51:48;26.30;20.40
13332;DHT22;6735;51.456;12.626;2023-06-04T09:54:14;26.40;20.10
13332;DHT22;6735;51.456;12.626;2023-06-04T09:56:40;26.50;19.90
13332;DHT22;6735;51.456;12.626;2023-06-04T09:59:08;26.60;19.50
13332;DHT22;6735;51.456;12.626;2023-06-04T10:01:39;26.70;19.70
13332;DHT22;6735;51.456;12.626;2023-06-04T10:04:07;26.30;20.50
13332;DHT22;6735;51.456;12.626;2023-06-04T10:06:35;26.40;20.60
13332;DHT22;6735;51.456;12.626;2023-06-04T10:09:07;26.50;20.40
13332;DHT22;6735;51.456;12.626;2023-06-04T10:11:35;26.70;20.40
13332;DHT22;6735;51.456;12.626;2023-06-04T10:14:05;27.10;20.40
13332;DHT22;6735;51.456;12.626;2023-06-04T10:16:32;26.70;20.70
13332;DHT22;6735;51.456;12.626;2023-06-04T10:18:59;26.90;20.60
13332;DHT22;6735;51.456;12.626;2023-06-04T10:21:26;26.80;20.40
13332;DHT22;6735;51.456;12.626;2023-06-04T10:23:52;26.90;20.00
13332;DHT22;6735;51.456;12.626;2023-06-04T10:26:17;27.00;20.00
13332;DHT22;6735;51.456;12.626;2023-06-04T10:28:43;27.10;20.10
13332;DHT22;6735;51.456;12.626;2023-06-04T10:31:10;27.30;20.10
13332;DHT22;6735;51.456;12.626;2023-06-04T10:33:36;27.10;20.20
13332;DHT22;6735;51.456;12.626;2023-06-04T10:36:16;27.40;20.10
13332;DHT22;6735;51.456;12.626;2023-06-04T10:38:52;27.20;19.20
13332;DHT22;6735;51.456;12.626;2023-06-04T10:41:19;27.20;19.80
13332;DHT22;6735;51.456;12.626;2023-06-04T10:43:47;27.50;20.30
13332;DHT22;6735;51.456;12.626;2023-06-04T10:46:16;27.20;20.40
13332;DHT22;6735;51.456;12.626;2023-06-04T10:48:49;27.00;20.30
13332;DHT22;6735;51.456;12.626;2023-06-04T10:51:16;26.80;20.30
13332;DHT22;6735;51.456;12.626;2023-06-04T10:53:42;26.90;20.30
13332;DHT22;6735;51.456;12.626;2023-06-04T10:56:08;27.20;20.00
13332;DHT22;6735;51.456;12.626;2023-06-04T10:58:34;27.50;19.80
13332;DHT22;6735;51.456;12.626;2023-06-04T11:01:00;27.70;19.80
13332;DHT22;6735;51.456;12.626;2023-06-04T11:03:35;27.90;19.70
13332;DHT22;6735;51.456;12.626;2023-06-04T11:06:01;27.90;19.10
13332;DHT22;6735;51.456;12.626;2023-06-04T11:08:29;27.80;19.60
13332;DHT22;6735;51.456;12.626;2023-06-04T11:10:55;27.70;19.60
13332;DHT22;6735;51.456;12.626;2023-06-04T11:13:24;27.70;19.40
13332;DHT22;6735;51.456;12.626;2023-06-04T11:15:53;27.70;19.40
13332;DHT22;6735;51.456;12.626;2023-06-04T11:18:20;27.60;19.70
13332;DHT22;6735;51.456;12.626;2023-06-04T11:20:47;27.80;19.60
13332;DHT22;6735;51.456;12.626;2023-06-04T11:23:14;27.90;19.60
13332;DHT22;6735;51.456;12.626;2023-06-04T11:25:40;27.50;19.70
13332;DHT22;6735;51.456;12.626;2023-06-04T11:28:07;27.60;19.60
13332;DHT22;6735;51.456;12.626;2023-06-04T11:30:33;27.60;19.60
13332;DHT22;6735;51.456;12.626;2023-06-04T11:33:05;27.60;19.50
13332;DHT22;6735;51.456;12.626;2023-06-04T11:35:38;27.30;19.40
13332;DHT22;6735;51.456;12.626;2023-06-04T11:38:05;27.40;19.60
13332;DHT22;6735;51.456;12.626;2023-06-04T11:40:30;27.30;19.70
13332;DHT22;6735;51.456;12.626;2023-06-04T11:42:56;27.70;19.20
13332;DHT22;6735;51.456;12.626;2023-06-04T11:45:22;27.60;19.00
13332;DHT22;6735;51.456;12.626;2023-06-04T11:47:54;27.70;18.90
13332;DHT22;6735;51.456;12.626;2023-06-04T11:50:21;27.70;18.90
13332;DHT22;6735;51.456;12.626;2023-06-04T11:52:48;27.90;18.50
13332;DHT22;6735;51.456;12.626;2023-06-04T11:55:15;27.80;18.60
13332;DHT22;6735;51.456;12.626;2023-06-04T11:57:42;27.70;18.80
13332;DHT22;6735;51.456;12.626;2023-06-04T12:00:09;27.80;18.70
13332;DHT22;6735;51.456;12.626;2023-06-04T12:02:38;27.90;18.50
13332;DHT22;6735;51.456;12.626;2023-06-04T12:05:14;28.00;18.50
13332;DHT22;6735;51.456;12.626;2023-06-04T12:07:40;27.60;18.20
13332;DHT22;6735;51.456;12.626;2023-06-04T12:10:07;27.60;18.20
13332;DHT22;6735;51.456;12.626;2023-06-04T12:12:34;27.60;18.30
13332;DHT22;6735;51.456;12.626;2023-06-04T12:15:00;27.70;18.30
13332;DHT22;6735;51.456;12.626;2023-06-04T12:17:26;27.50;18.30
13332;DHT22;6735;51.456;12.626;2023-06-04T12:19:51;27.50;18.30
13332;DHT22;6735;51.456;12.626;2023-06-04T12:22:17;27.70;18.00
13332;DHT22;6735;51.456;12.626;2023-06-04T12:24:53;27.90;17.90
13332;DHT22;6735;51.456;12.626;2023-06-04T12:27:20;27.60;18.10
13332;DHT22;6735;51.456;12.626;2023-06-04T12:29:57;27.80;18.10
13332;DHT22;6735;51.456;12.626;2023-06-04T12:32:23;27.70;17.40
13332;DHT22;6735;51.456;12.626;2023-06-04T12:34:49;27.60;17.90
13332;DHT22;6735;51.456;12.626;2023-06-04T12:37:15;27.40;18.00
13332;DHT22;6735;51.456;12.626;2023-06-04T12:39:40;27.50;18.00
13332;DHT22;6735;51.456;12.626;2023-06-04T12:42:06;27.80;17.90
13332;DHT22;6735;51.456;12.626;2023-06-04T12:44:37;28.00;17.80
13332;DHT22;6735;51.456;12.626;2023-06-04T12:47:04;27.80;17.90
13332;DHT22;6735;51.456;12.626;2023-06-04T12:49:29;27.80;18.00
13332;DHT22;6735;51.456;12.626;2023-06-04T12:51:55;27.60;18.10
13332;DHT22;6735;51.456;12.626;2023-06-04T12:54:20;27.70;18.00
13332;DHT22;6735;51.456;12.626;2023-06-04T12:56:46;28.00;17.70
13332;DHT22;6735;51.456;12.626;2023-06-04T12:59:11;28.10;17.70
13332;DHT22;6735;51.456;12.626;2023-06-04T13:01:37;28.30;17.60
13332;DHT22;6735;51.456;12.626;2023-06-04T13:04:03;28.20;17.80
13332;DHT22;6735;51.456;12.626;2023-06-04T13:06:29;28.20;17.70
13332;DHT22;6735;51.456;12.626;2023-06-04T13:08:54;27.90;17.80
13332;DHT22;6735;51.456;12.626;2023-06-04T13:11:20;28.00;17.60
13332;DHT22;6735;51.456;12.626;2023-06-04T13:13:47;28.10;17.60
13332;DHT22;6735;51.456;12.626;2023-06-04T13:16:12;28.10;17.60
13332;DHT22;6735;51.456;12.626;2023-06-04T13:18:38;28.30;17.40
13332;DHT22;6735;51.456;12.626;2023-06-04T13:21:03;28.50;17.20
13332;DHT22;6735;51.456;12.626;2023-06-04T13:23:29;28.60;17.00
13332;DHT22;6735;51.456;12.626;2023-06-04T13:25:54;28.70;16.90
13332;DHT22;6735;51.456;12.626;2023-06-04T13:28:20;28.40;17.00
13332;DHT22;6735;51.456;12.626;2023-06-04T13:30:46;28.30;17.10
13332;DHT22;6735;51.456;12.626;2023-06-04T13:33:11;27.80;17.20
13332;DHT22;6735;51.456;12.626;2023-06-04T13:35:37;27.60;17.30
13332;DHT22;6735;51.456;12.626;2023-06-04T13:38:04;27.70;17.40
13332;DHT22;6735;51.456;12.626;2023-06-04T13:40:33;27.90;17.40
13332;DHT22;6735;51.456;12.626;2023-06-04T13:42:59;27.80;17.50
13332;DHT22;6735;51.456;12.626;2023-06-04T13:45:25;28.00;17.60
13332;DHT22;6735;51.456;12.626;2023-06-04T13:47:50;27.80;17.20
13332;DHT22;6735;51.456;12.626;2023-06-04T13:50:16;27.80;17.30
13332;DHT22;6735;51.456;12.626;2023-06-04T13:52:41;27.70;17.00
13332;DHT22;6735;51.456;12.626;2023-06-04T13:55:07;27.90;16.60
13332;DHT22;6735;51.456;12.626;2023-06-04T13:57:33;27.60;16.80
13332;DHT22;6735;51.456;12.626;2023-06-04T13:59:58;27.60;16.80
13332;DHT22;6735;51.456;12.626;2023-06-04T14:02:24;27.70;16.70
13332;DHT22;6735;51.456;12.626;2023-06-04T14:04:50;27.80;16.70
13332;DHT22;6735;51.456;12.626;2023-06-04T14:07:16;27.80;16.70
13332;DHT22;6735;51.456;12.626;2023-06-04T14:09:42;27.60;16.80
13332;DHT22;6735;51.456;12.626;2023-06-04T14:12:08;27.70;16.80
13332;DHT22;6735;51.456;12.626;2023-06-04T14:14:33;27.90;17.00
13332;DHT22;6735;51.456;12.626;2023-06-04T14:17:02;28.10;17.30
13332;DHT22;6735;51.456;12.626;2023-06-04T14:19:28;28.00;17.00
13332;DHT22;6735;51.456;12.626;2023-06-04T14:21:53;27.80;17.00
13332;DHT22;6735;51.456;12.626;2023-06-04T14:24:19;27.70;16.90
13332;DHT22;6735;51.456;12.626;2023-06-04T14:26:45;27.80;17.00
13332;DHT22;6735;51.456;12.626;2023-06-04T14:29:11;27.60;17.10
13332;DHT22;6735;51.456;12.626;2023-06-04T14:31:36;27.50;17.20
13332;DHT22;6735;51.456;12.626;2023-06-04T14:34:02;27.50;17.30
13332;DHT22;6735;51.456;12.626;2023-06-04T14:36:28;27.70;17.20
13332;DHT22;6735;51.456;12.626;2023-06-04T14:38:53;27.20;17.30
13332;DHT22;6735;51.456;12.626;2023-06-04T14:41:19;27.40;17.50
13332;DHT22;6735;51.456;12.626;2023-06-04T14:43:44;27.40;17.50
13332;DHT22;6735;51.456;12.626;2023-06-04T14:46:10;27.10;17.50
13332;DHT22;6735;51.456;12.626;2023-06-04T14:48:35;27.20;17.30
13332;DHT22;6735;51.456;12.626;2023-06-04T14:51:01;27.20;17.10
13332;DHT22;6735;51.456;12.626;2023-06-04T14:53:26;27.20;17.30
13332;DHT22;6735;51.456;12.626;2023-06-04T14:55:52;27.20;17.20
13332;DHT22;6735;51.456;12.626;2023-06-04T14:58:18;27.20;17.40
13332;DHT22;6735;51.456;12.626;2023-06-04T15:00:43;27.20;17.30
13332;DHT22;6735;51.456;12.626;2023-06-04T15:03:09;27.00;17.80
13332;DHT22;6735;51.456;12.626;2023-06-04T15:05:35;26.60;18.30
13332;DHT22;6735;51.456;12.626;2023-06-04T15:08:01;26.70;18.10
13332;DHT22;6735;51.456;12.626;2023-06-04T15:10:27;26.70;18.10
13332;DHT22;6735;51.456;12.626;2023-06-04T15:12:53;26.70;18.20
13332;DHT22;6735;51.456;12.626;2023-06-04T15:15:18;26.60;18.20
13332;DHT22;6735;51.456;12.626;2023-06-04T15:17:44;26.60;18.20
13332;DHT22;6735;51.456;12.626;2023-06-04T15:20:10;26.20;18.50
13332;DHT22;6735;51.456;12.626;2023-06-04T15:22:35;26.10;18.40
13332;DHT22;6735;51.456;12.626;2023-06-04T15:25:01;26.10;18.50
13332;DHT22;6735;51.456;12.626;2023-06-04T15:27:26;25.90;18.40
13332;DHT22;6735;51.456;12.626;2023-06-04T15:29:52;25.70;18.50
13332;DHT22;6735;51.456;12.626;2023-06-04T15:32:18;25.70;18.60
13332;DHT22;6735;51.456;12.626;2023-06-04T15:34:43;25.60;19.00